Time;durP1;ratioP1;P1;durP2;ratioP2;P2;SDS_P1;SDS_P2;PMS_P1;PMS_P2;Temp;Humidity;BMP_temperature;BMP_pressure;BME280_temperature;BME280_humidity;BME280_pressure;Samples;Min_cycle;Max_cycle;Signal;HPM_P1;HPM_P2
2020/12/01 00:00:20;;;;;;;23.43;20.53;;;4.50;99.90;;;;;;5091208;28;20527;-80
2020/12/01 00:02:48;;;;;;;24.80;20.67;;;4.50;99.90;;;;;;5083609;28;20479;-80
2020/12/01 00:05:18;;;;;;;25.43;21.00;;;4.50;99.90;;;;;;5085258;28;20448;-80
2020/12/01 00:07:45;;;;;;;24.10;19.67;;;4.50;99.90;;;;;;5083075;28;20437;-80
2020/12/01 00:10:13;;;;;;;22.27;18.93;;;4.50;99.90;;;;;;5084841;28;20468;-80
2020/12/01 00:12:41;;;;;;;25.57;20.53;;;4.50;99.90;;;;;;5084755;28;20433;-80
2020/12/01 00:15:09;;;;;;;23.73;20.70;;;4.50;99.90;;;;;;5083415;28;20461;-80
2020/12/01 00:17:36;;;;;;;23.33;20.37;;;4.60;99.90;;;;;;5081434;28;21033;-80
2020/12/01 00:20:05;;;;;;;24.07;19.77;;;4.60;99.90;;;;;;5080716;28;20457;-80
2020/12/01 00:22:34;;;;;;;24.70;21.07;;;4.50;99.90;;;;;;5093877;28;20448;-80
2020/12/01 00:25:02;;;;;;;25.30;21.10;;;4.60;99.90;;;;;;5101955;28;20527;-80
2020/12/01 00:27:29;;;;;;;26.63;23.03;;;4.60;99.90;;;;;;5102421;28;20851;-80
2020/12/01 00:29:56;;;;;;;28.60;22.73;;;4.60;99.90;;;;;;5103165;28;20505;-80
2020/12/01 00:32:23;;;;;;;28.07;22.73;;;4.60;99.90;;;;;;5084907;28;20493;-79
2020/12/01 00:34:50;;;;;;;25.40;21.27;;;4.60;99.90;;;;;;5090513;28;20500;-80
2020/12/01 00:37:17;;;;;;;24.37;21.63;;;4.60;99.90;;;;;;5103787;28;20894;-80
2020/12/01 00:39:45;;;;;;;25.80;22.20;;;4.70;99.90;;;;;;5103856;28;20479;-80
2020/12/01 00:42:12;;;;;;;27.83;23.43;;;4.70;99.90;;;;;;5095227;28;20441;-79
2020/12/01 00:44:39;;;;;;;29.47;24.00;;;4.70;99.90;;;;;;5085160;28;20449;-79
2020/12/01 00:47:06;;;;;;;26.50;22.63;;;4.70;99.90;;;;;;5080311;28;20985;-80
2020/12/01 00:49:33;;;;;;;27.30;22.70;;;4.70;99.90;;;;;;5080153;28;20978;-80
2020/12/01 00:52:01;;;;;;;24.13;21.63;;;4.80;99.90;;;;;;5080635;28;20516;-80
2020/12/01 00:54:28;;;;;;;27.20;22.93;;;4.70;99.90;;;;;;5080807;28;20481;-80
2020/12/01 00:56:58;;;;;;;25.40;21.97;;;4.80;99.90;;;;;;5093347;28;20445;-80
2020/12/01 00:59:26;;;;;;;26.87;21.77;;;4.80;99.90;;;;;;5092976;28;20559;-80
2020/12/01 01:01:56;;;;;;;27.53;24.40;;;4.80;99.90;;;;;;5089695;28;20448;-80
2020/12/01 01:04:24;;;;;;;27.20;22.90;;;4.80;99.90;;;;;;5083172;28;20457;-80
2020/12/01 01:06:51;;;;;;;27.93;23.80;;;4.80;99.90;;;;;;5087843;28;20539;-80
2020/12/01 01:09:18;;;;;;;28.80;24.17;;;4.80;99.90;;;;;;5101930;28;20448;-80
2020/12/01 01:11:46;;;;;;;27.43;23.30;;;4.90;99.90;;;;;;5101592;28;20444;-80
2020/12/01 01:14:14;;;;;;;30.93;25.17;;;4.90;99.90;;;;;;5086002;28;20480;-80
2020/12/01 01:16:43;;;;;;;29.13;24.47;;;4.90;99.90;;;;;;5082797;28;20433;-80
2020/12/01 01:19:11;;;;;;;29.27;23.80;;;4.90;99.90;;;;;;5083556;28;20461;-80
2020/12/01 01:21:40;;;;;;;26.93;24.03;;;4.90;99.90;;;;;;5087560;28;20458;-79
2020/12/01 01:24:09;;;;;;;28.60;24.13;;;4.90;99.90;;;;;;5102944;28;20987;-79
2020/12/01 01:26:36;;;;;;;29.77;24.67;;;5.00;99.90;;;;;;5101424;28;20445;-79
2020/12/01 01:29:04;;;;;;;32.10;24.70;;;5.00;99.90;;;;;;5104411;28;20448;-80
2020/12/01 01:31:32;;;;;;;30.80;24.03;;;5.00;99.90;;;;;;5107091;28;20564;-80
2020/12/01 01:33:59;;;;;;;28.57;24.20;;;5.00;99.90;;;;;;5095255;28;20851;-80
2020/12/01 01:36:32;;;;;;;28.60;23.63;;;5.00;99.90;;;;;;5086705;28;20449;-80
2020/12/01 01:38:59;;;;;;;27.57;23.53;;;5.00;99.90;;;;;;5107374;28;20495;-80
2020/12/01 01:41:30;;;;;;;30.87;23.67;;;5.00;99.90;;;;;;5094420;28;20457;-80
2020/12/01 01:43:58;;;;;;;26.97;23.50;;;5.10;99.90;;;;;;5084118;28;20532;-80
2020/12/01 01:46:41;;;;;;;26.40;22.77;;;5.10;99.90;;;;;;5084395;28;20452;-80
2020/12/01 01:49:15;;;;;;;24.80;21.77;;;5.10;99.90;;;;;;5102983;28;20432;-80
2020/12/01 01:51:49;;;;;;;24.03;21.33;;;5.10;99.90;;;;;;5104866;28;20501;-80
2020/12/01 01:54:19;;;;;;;26.67;22.10;;;5.10;99.90;;;;;;5095975;28;20544;-79
2020/12/01 01:56:50;;;;;;;25.13;22.07;;;5.10;99.90;;;;;;5084515;28;20444;-79
2020/12/01 01:59:18;;;;;;;27.53;23.13;;;5.10;99.90;;;;;;5094432;28;20474;-79
2020/12/01 02:01:46;;;;;;;27.30;22.43;;;5.10;99.90;;;;;;5106412;28;20428;-79
2020/12/01 02:04:15;;;;;;;27.60;21.50;;;5.20;99.90;;;;;;5099330;28;20733;-80
2020/12/01 02:06:46;;;;;;;26.03;21.83;;;5.20;99.90;;;;;;5085288;28;21004;-80
2020/12/01 02:09:18;;;;;;;24.83;22.00;;;5.20;99.90;;;;;;5100909;28;20456;-80
2020/12/01 02:11:47;;;;;;;27.30;21.52;;;5.20;99.90;;;;;;5097272;28;20471;-79
2020/12/01 02:14:17;;;;;;;27.90;20.20;;;5.40;99.90;;;;;;5099929;28;20230;-79
2020/12/01 02:16:49;;;;;;;25.23;21.00;;;5.40;99.90;;;;;;5086462;28;20512;-80
2020/12/01 02:19:21;;;;;;;24.07;20.97;;;5.40;99.90;;;;;;5086378;28;20467;-80
2020/12/01 02:21:48;;;;;;;25.63;21.90;;;5.40;99.90;;;;;;5088284;28;20441;-80
2020/12/01 02:24:19;;;;;;;26.13;21.47;;;5.30;99.90;;;;;;5084647;28;20449;-81
2020/12/01 02:26:53;;;;;;;22.00;19.33;;;5.30;99.90;;;;;;5102170;28;20508;-80
2020/12/01 02:29:22;;;;;;;23.70;19.90;;;5.40;99.90;;;;;;5103781;28;20425;-80
2020/12/01 02:31:49;;;;;;;23.20;19.07;;;5.30;99.90;;;;;;5103999;28;20528;-80
2020/12/01 02:34:19;;;;;;;22.93;20.17;;;5.40;99.90;;;;;;5100566;28;20456;-80
2020/12/01 02:36:46;;;;;;;22.80;18.37;;;5.40;99.90;;;;;;5085342;28;20529;-80
2020/12/01 02:39:17;;;;;;;24.00;19.97;;;5.40;99.90;;;;;;5095024;28;20539;-80
2020/12/01 02:41:44;;;;;;;22.00;19.70;;;5.40;99.90;;;;;;5104807;28;20436;-80
2020/12/01 02:44:12;;;;;;;21.67;16.97;;;5.40;99.90;;;;;;5094130;28;20449;-80
2020/12/01 02:46:39;;;;;;;21.73;18.33;;;5.40;99.90;;;;;;5097993;28;20547;-80
2020/12/01 02:49:08;;;;;;;21.20;18.60;;;5.40;99.90;;;;;;5104842;28;20440;-80
2020/12/01 02:51:35;;;;;;;22.10;18.00;;;5.40;99.90;;;;;;5105611;28;20488;-80
2020/12/01 02:54:02;;;;;;;20.60;16.37;;;5.40;99.90;;;;;;5094063;28;20456;-80
2020/12/01 02:56:29;;;;;;;19.17;17.00;;;5.50;99.90;;;;;;5094129;28;20877;-80
2020/12/01 02:58:56;;;;;;;18.90;16.50;;;5.50;99.90;;;;;;5085016;28;20469;-80
2020/12/01 03:01:24;;;;;;;19.27;16.30;;;5.50;99.90;;;;;;5083161;28;20495;-80
2020/12/01 03:03:51;;;;;;;20.20;16.47;;;5.50;99.90;;;;;;5081404;28;20942;-80
2020/12/01 03:06:20;;;;;;;23.30;17.00;;;5.50;99.90;;;;;;5088980;28;20490;-80
2020/12/01 03:08:48;;;;;;;17.97;16.07;;;5.50;99.90;;;;;;5100307;28;20498;-80
2020/12/01 03:11:16;;;;;;;17.80;15.90;;;5.50;99.90;;;;;;5094317;28;20890;-80
2020/12/01 03:13:44;;;;;;;20.50;15.90;;;5.50;99.90;;;;;;5102428;28;20443;-80
2020/12/01 03:16:11;;;;;;;20.63;16.33;;;5.60;99.90;;;;;;5098294;28;20458;-80
2020/12/01 03:18:41;;;;;;;19.87;16.00;;;5.60;99.90;;;;;;5100717;28;20464;-80
2020/12/01 03:21:10;;;;;;;17.70;14.60;;;5.60;99.90;;;;;;5101033;28;20459;-80
2020/12/01 03:23:37;;;;;;;21.17;15.90;;;5.60;99.90;;;;;;5081189;28;20453;-80
2020/12/01 03:26:04;;;;;;;19.40;14.80;;;5.60;99.90;;;;;;5089474;28;20535;-80
2020/12/01 03:28:31;;;;;;;21.43;16.97;;;5.60;99.90;;;;;;5083999;28;20446;-80
2020/12/01 03:30:58;;;;;;;18.30;15.50;;;5.60;99.90;;;;;;5080875;28;20476;-80
2020/12/01 03:33:26;;;;;;;18.90;16.30;;;5.60;99.90;;;;;;5101179;28;20459;-80
2020/12/01 03:35:55;;;;;;;19.00;15.90;;;5.60;99.90;;;;;;5102944;28;20444;-80
2020/12/01 03:38:22;;;;;;;20.57;16.90;;;5.60;99.90;;;;;;5084423;28;20461;-80
2020/12/01 03:40:49;;;;;;;18.23;16.03;;;5.70;99.90;;;;;;5081451;28;20985;-80
2020/12/01 03:43:17;;;;;;;17.53;15.60;;;5.70;99.90;;;;;;5084256;28;20445;-80
2020/12/01 03:45:44;;;;;;;19.23;15.47;;;5.70;99.90;;;;;;5097700;28;20512;-80
2020/12/01 03:48:11;;;;;;;17.40;15.20;;;5.70;99.90;;;;;;5089556;28;20450;-80
2020/12/01 03:50:39;;;;;;;18.97;15.17;;;5.70;99.90;;;;;;5104231;28;20456;-80
2020/12/01 03:53:08;;;;;;;18.70;16.07;;;5.70;99.90;;;;;;5102720;28;20453;-80
2020/12/01 03:55:35;;;;;;;19.13;15.53;;;5.70;99.90;;;;;;5103497;28;20464;-80
2020/12/01 03:58:03;;;;;;;20.57;16.17;;;5.80;99.90;;;;;;5103098;28;20432;-79
2020/12/01 04:00:31;;;;;;;16.77;14.40;;;5.80;99.90;;;;;;5086617;28;20472;-79
2020/12/01 04:02:58;;;;;;;19.30;14.93;;;5.80;99.90;;;;;;5104411;28;20448;-80
2020/12/01 04:05:28;;;;;;;19.23;15.63;;;5.80;99.90;;;;;;5105241;28;20448;-80
2020/12/01 04:07:57;;;;;;;17.77;15.47;;;5.80;99.90;;;;;;5102543;28;20432;-80
2020/12/01 04:10:26;;;;;;;19.23;16.23;;;5.80;99.90;;;;;;5096861;28;21352;-80
2020/12/01 04:12:54;;;;;;;19.83;15.80;;;5.80;99.90;;;;;;5088199;28;20446;-80
2020/12/01 04:15:23;;;;;;;19.20;15.90;;;5.80;99.90;;;;;;5082603;28;20881;-80
2020/12/01 04:17:50;;;;;;;17.70;14.73;;;5.90;99.90;;;;;;5083608;28;20469;-80
2020/12/01 04:20:18;;;;;;;21.02;15.60;;;5.90;99.90;;;;;;5088454;28;20483;-80
2020/12/01 04:22:46;;;;;;;18.50;14.20;;;6.00;99.90;;;;;;5085771;28;20204;-80
2020/12/01 04:25:15;;;;;;;18.20;15.37;;;6.00;99.90;;;;;;5080211;28;20450;-80
2020/12/01 04:27:43;;;;;;;19.48;15.73;;;6.00;99.90;;;;;;5095787;28;20464;-80
2020/12/01 04:30:11;;;;;;;18.70;15.77;;;6.00;99.90;;;;;;5100982;28;20213;-80
2020/12/01 04:32:38;;;;;;;19.70;14.43;;;6.00;99.90;;;;;;5080173;28;20445;-80
2020/12/01 04:35:06;;;;;;;18.03;14.90;;;6.00;99.90;;;;;;5079210;28;20603;-80
2020/12/01 04:37:34;;;;;;;20.83;15.30;;;6.00;99.90;;;;;;5081685;28;20537;-80
2020/12/01 04:40:01;;;;;;;19.27;15.37;;;6.00;99.90;;;;;;5079968;28;20499;-80
2020/12/01 04:42:29;;;;;;;17.50;14.07;;;6.00;99.90;;;;;;5092043;28;20505;-80
2020/12/01 04:45:02;;;;;;;18.27;14.47;;;6.00;99.90;;;;;;5083664;28;20532;-80
2020/12/01 04:47:34;;;;;;;19.00;16.00;;;6.00;99.90;;;;;;5095011;28;20913;-80
2020/12/01 04:50:05;;;;;;;20.63;16.10;;;6.00;99.90;;;;;;5101628;28;20976;-80
2020/12/01 04:53:00;;;;;;;20.27;16.90;;;6.10;99.90;;;;;;5097142;28;20475;-80
2020/12/01 04:55:54;;;;;;;21.50;16.53;;;6.10;99.90;;;;;;5091493;28;20926;-80
2020/12/01 04:58:56;;;;;;;26.50;17.20;;;6.10;99.90;;;;;;5057691;28;20449;-79
2020/12/01 05:01:46;;;;;;;21.43;17.17;;;6.10;99.90;;;;;;5080508;28;20540;-80
2020/12/01 05:04:26;;;;;;;21.93;16.30;;;6.10;99.90;;;;;;5082333;28;20511;-80
2020/12/01 05:07:04;;;;;;;19.40;16.60;;;6.10;99.90;;;;;;5080514;28;20480;-80
2020/12/01 05:09:37;;;;;;;21.80;15.90;;;6.10;99.90;;;;;;5092088;28;20473;-80
2020/12/01 05:12:10;;;;;;;21.80;16.47;;;6.10;99.90;;;;;;5081082;28;20495;-80
2020/12/01 05:14:42;;;;;;;22.23;15.17;;;6.10;99.90;;;;;;5086528;28;20489;-80
2020/12/01 05:17:48;;;;;;;20.53;15.73;;;6.10;99.90;;;;;;5086736;28;20468;-80
2020/12/01 05:20:15;;;;;;;19.60;15.97;;;6.20;99.90;;;;;;5101987;28;20574;-80
2020/12/01 05:22:49;;;;;;;20.37;16.10;;;6.20;99.90;;;;;;5100677;28;20524;-79
2020/12/01 05:25:20;;;;;;;19.63;14.83;;;6.20;99.90;;;;;;5082944;28;20449;-80
2020/12/01 05:27:47;;;;;;;20.00;15.17;;;6.20;99.90;;;;;;5095616;28;20553;-80
2020/12/01 05:30:19;;;;;;;21.07;16.20;;;6.20;99.90;;;;;;5106351;28;20570;-80
2020/12/01 05:32:54;;;;;;;22.23;16.93;;;6.20;99.90;;;;;;5103808;28;20504;-80
2020/12/01 05:35:25;;;;;;;20.57;15.90;;;6.20;99.90;;;;;;5082722;28;20456;-80
2020/12/01 05:37:55;;;;;;;21.90;17.53;;;6.20;99.90;;;;;;5086638;28;20443;-80
2020/12/01 05:40:22;;;;;;;20.73;16.20;;;6.20;99.90;;;;;;5102401;28;20552;-80
2020/12/01 05:42:50;;;;;;;22.60;16.63;;;6.20;99.90;;;;;;5103879;28;20442;-80
2020/12/01 05:45:25;;;;;;;21.73;16.67;;;6.20;99.90;;;;;;5098780;28;20456;-80
2020/12/01 05:48:13;;;;;;;20.00;15.63;;;6.20;99.90;;;;;;5089941;28;20433;-80
2020/12/01 05:50:48;;;;;;;22.47;17.37;;;6.30;99.90;;;;;;5092514;28;20563;-80
2020/12/01 05:53:18;;;;;;;21.53;16.63;;;6.30;99.90;;;;;;5077067;28;20934;-80
2020/12/01 05:55:59;;;;;;;19.67;16.17;;;6.30;99.90;;;;;;5090504;28;20486;-80
2020/12/01 05:58:38;;;;;;;22.37;16.43;;;6.30;99.90;;;;;;5095905;28;20508;-80
2020/12/01 06:01:05;;;;;;;22.97;16.57;;;6.30;99.90;;;;;;5077609;28;20547;-80
2020/12/01 06:03:45;;;;;;;21.37;16.30;;;6.30;99.90;;;;;;5077584;28;20455;-80
2020/12/01 06:06:14;;;;;;;24.10;16.77;;;6.30;99.90;;;;;;5094810;28;20520;-80
2020/12/01 06:08:57;;;;;;;24.17;17.50;;;6.30;99.90;;;;;;5098425;28;20949;-80
2020/12/01 06:11:37;;;;;;;22.17;16.97;;;6.30;99.90;;;;;;5098815;28;20559;-80
2020/12/01 06:14:14;;;;;;;24.53;18.27;;;6.30;99.90;;;;;;5099876;28;20440;-80
2020/12/01 06:16:49;;;;;;;23.80;17.37;;;6.30;99.90;;;;;;5092540;28;20469;-80
2020/12/01 06:19:26;;;;;;;25.53;17.63;;;6.40;99.90;;;;;;5078473;28;20540;-80
2020/12/01 06:22:34;;;;;;;25.00;19.10;;;6.40;99.90;;;;;;5080730;28;20429;-81
2020/12/01 06:25:21;;;;;;;25.80;18.00;;;6.40;99.90;;;;;;5078582;28;20485;-80
2020/12/01 06:28:10;;;;;;;28.58;18.95;;;6.40;99.90;;;;;;5078171;28;20448;-80
2020/12/01 06:30:59;;;;;;;28.83;18.57;;;6.50;99.90;;;;;;5078584;28;20227;-80
2020/12/01 06:33:54;;;;;;;29.00;19.13;;;6.50;99.90;;;;;;5079906;28;20525;-80
2020/12/01 06:37:02;;;;;;;27.77;18.73;;;6.50;99.90;;;;;;5080149;28;20448;-80
2020/12/01 06:39:44;;;;;;;25.97;18.57;;;6.60;99.90;;;;;;5078969;28;20212;-80
2020/12/01 06:42:15;;;;;;;26.10;19.57;;;6.60;99.90;;;;;;5080200;28;20453;-80
2020/12/01 06:44:45;;;;;;;25.30;17.40;;;6.50;99.90;;;;;;5080226;28;20822;-80
2020/12/01 06:47:12;;;;;;;27.83;19.60;;;6.50;99.90;;;;;;5087037;28;20453;-80
2020/12/01 06:49:40;;;;;;;25.83;17.70;;;6.50;99.90;;;;;;5083536;28;20467;-80
2020/12/01 06:52:14;;;;;;;26.80;18.13;;;6.50;99.90;;;;;;5086362;28;20458;-80
2020/12/01 06:54:49;;;;;;;29.07;20.23;;;6.50;99.90;;;;;;5102660;28;20452;-80
2020/12/01 06:57:31;;;;;;;29.67;19.60;;;6.50;99.90;;;;;;5101605;28;20455;-80
2020/12/01 06:59:59;;;;;;;26.10;18.40;;;6.50;99.90;;;;;;5081805;28;20563;-80
2020/12/01 07:02:31;;;;;;;23.93;17.80;;;6.50;99.90;;;;;;5096097;28;20437;-80
2020/12/01 07:05:09;;;;;;;28.30;18.97;;;6.60;99.90;;;;;;5081804;28;20814;-80
2020/12/01 07:07:40;;;;;;;28.00;18.30;;;6.60;99.90;;;;;;5080266;28;20454;-80
2020/12/01 07:10:21;;;;;;;26.93;18.80;;;6.60;99.90;;;;;;5081556;28;20467;-80
2020/12/01 07:12:54;;;;;;;27.80;18.20;;;6.60;99.90;;;;;;5081615;28;20436;-80
2020/12/01 07:15:36;;;;;;;26.73;19.23;;;6.60;99.90;;;;;;5102158;28;20552;-80
2020/12/01 07:18:15;;;;;;;26.27;17.13;;;6.60;99.90;;;;;;5100560;28;20428;-80
2020/12/01 07:21:01;;;;;;;29.67;19.17;;;6.60;99.90;;;;;;5098057;28;20478;-80
2020/12/01 07:23:34;;;;;;;23.63;17.20;;;6.60;99.90;;;;;;5088468;28;20447;-80
2020/12/01 07:26:15;;;;;;;28.90;20.77;;;6.60;99.90;;;;;;5079720;28;20488;-81
2020/12/01 07:29:07;;;;;;;25.20;19.80;;;6.60;99.90;;;;;;5079839;28;20882;-81
2020/12/01 07:31:37;;;;;;;27.60;21.63;;;6.60;99.90;;;;;;5083806;28;20539;-80
2020/12/01 07:34:07;;;;;;;32.53;23.30;;;6.60;99.90;;;;;;5098934;28;20517;-80
2020/12/01 07:36:41;;;;;;;33.00;22.17;;;6.70;99.90;;;;;;5100355;28;20434;-80
2020/12/01 07:39:17;;;;;;;37.20;26.50;;;6.70;99.90;;;;;;5098523;28;20509;-80
2020/12/01 07:41:50;;;;;;;28.40;23.20;;;6.70;99.90;;;;;;5089888;28;20453;-80
2020/12/01 07:44:20;;;;;;;31.27;23.03;;;6.70;99.90;;;;;;5078903;28;20441;-80
2020/12/01 07:46:59;;;;;;;32.17;24.93;;;6.70;99.90;;;;;;5078524;28;20457;-80
2020/12/01 07:49:28;;;;;;;35.60;23.43;;;6.70;99.90;;;;;;5077957;28;20826;-80
2020/12/01 07:52:03;;;;;;;28.93;21.43;;;6.70;99.90;;;;;;5077785;28;20450;-80
2020/12/01 07:54:32;;;;;;;31.23;23.10;;;6.70;99.90;;;;;;5098448;28;20520;-80
2020/12/01 07:57:09;;;;;;;34.03;23.57;;;6.80;99.90;;;;;;5098616;28;20451;-80
2020/12/01 07:59:41;;;;;;;32.50;23.00;;;6.80;99.90;;;;;;5085541;28;20487;-80
2020/12/01 08:02:08;;;;;;;33.10;23.17;;;6.80;99.90;;;;;;5095016;28;20496;-80
2020/12/01 08:04:35;;;;;;;31.50;22.20;;;6.80;99.90;;;;;;5100356;28;20548;-80
2020/12/01 08:07:04;;;;;;;32.73;22.13;;;6.80;99.90;;;;;;5099477;28;20434;-80
2020/12/01 08:09:31;;;;;;;35.73;23.33;;;6.80;99.90;;;;;;5084404;28;20502;-80
2020/12/01 08:12:03;;;;;;;32.23;22.47;;;6.80;99.90;;;;;;5081579;28;20450;-80
2020/12/01 08:14:35;;;;;;;35.07;23.37;;;6.90;99.90;;;;;;5080578;28;20496;-80
2020/12/01 08:17:06;;;;;;;36.67;22.50;;;6.90;99.90;;;;;;5090770;28;20437;-80
2020/12/01 08:19:35;;;;;;;32.87;23.80;;;6.90;99.90;;;;;;5098751;28;20478;-80
2020/12/01 08:22:06;;;;;;;33.73;23.47;;;6.90;99.90;;;;;;5084174;28;20481;-80
2020/12/01 08:24:38;;;;;;;32.43;22.57;;;6.90;99.90;;;;;;5078832;28;20462;-80
2020/12/01 08:27:16;;;;;;;36.13;25.10;;;6.90;99.90;;;;;;5080189;28;20449;-80
2020/12/01 08:29:45;;;;;;;32.00;22.87;;;6.90;99.90;;;;;;5078550;28;20472;-80
2020/12/01 08:32:25;;;;;;;42.87;30.53;;;6.90;99.90;;;;;;5079175;28;20441;-80
2020/12/01 08:35:02;;;;;;;41.45;29.50;;;7.00;99.90;;;;;;5082659;28;20864;-80
2020/12/01 08:37:43;;;;;;;41.37;28.27;;;7.10;99.90;;;;;;5086879;28;20525;-80
2020/12/01 08:40:21;;;;;;;40.00;26.53;;;7.10;99.90;;;;;;5078529;28;20622;-80
2020/12/01 08:43:14;;;;;;;36.87;24.70;;;7.10;99.90;;;;;;5078067;28;20429;-80
2020/12/01 08:45:53;;;;;;;42.30;26.67;;;7.00;99.90;;;;;;5095108;28;20491;-80
2020/12/01 08:48:27;;;;;;;39.40;23.60;;;7.10;99.90;;;;;;5079904;28;20859;-80
2020/12/01 08:51:01;;;;;;;33.63;23.03;;;7.10;99.90;;;;;;5079918;28;20469;-80
2020/12/01 08:53:28;;;;;;;38.67;22.90;;;7.10;99.90;;;;;;5080159;28;20463;-80
2020/12/01 08:55:57;;;;;;;46.67;24.30;;;7.10;99.90;;;;;;5090937;28;20543;-80
2020/12/01 08:58:40;;;;;;;38.50;25.43;;;7.10;99.90;;;;;;5087537;28;20536;-81
2020/12/01 09:01:09;;;;;;;39.53;25.27;;;7.20;99.90;;;;;;5075728;28;20909;-80
2020/12/01 09:03:39;;;;;;;41.57;26.30;;;7.20;99.90;;;;;;5075638;28;20474;-80
2020/12/01 09:06:21;;;;;;;39.70;25.60;;;7.20;99.90;;;;;;5077324;28;20471;-80
2020/12/01 09:08:56;;;;;;;45.47;26.40;;;7.20;99.90;;;;;;5077056;28;20970;-80
2020/12/01 09:11:58;;;;;;;37.50;24.60;;;7.20;99.90;;;;;;5087446;28;20472;-80
2020/12/01 09:14:45;;;;;;;36.07;22.43;;;7.20;99.90;;;;;;5090592;28;20485;-80
2020/12/01 09:17:24;;;;;;;37.20;22.63;;;7.20;99.90;;;;;;5080372;28;20448;-80
2020/12/01 09:20:13;;;;;;;35.10;21.23;;;7.20;99.90;;;;;;5094440;28;20538;-80
2020/12/01 09:22:40;;;;;;;40.57;22.40;;;7.30;99.90;;;;;;5087260;28;20484;-80
2020/12/01 09:25:13;;;;;;;33.57;21.00;;;7.20;99.90;;;;;;5095481;28;20443;-80
2020/12/01 09:27:41;;;;;;;37.30;22.20;;;7.20;99.90;;;;;;5076590;28;20504;-80
2020/12/01 09:30:25;;;;;;;42.00;23.77;;;7.30;99.90;;;;;;5076691;28;20483;-80
2020/12/01 09:32:53;;;;;;;39.60;22.03;;;7.30;99.90;;;;;;5076772;28;20442;-80
2020/12/01 09:35:21;;;;;;;35.83;22.50;;;7.20;99.90;;;;;;5077918;28;20470;-80
2020/12/01 09:37:48;;;;;;;42.77;22.00;;;7.20;99.90;;;;;;5078032;28;20436;-80
2020/12/01 09:40:16;;;;;;;45.93;23.10;;;7.20;99.90;;;;;;5078348;28;20501;-80
2020/12/01 09:42:46;;;;;;;50.30;26.30;;;7.30;99.90;;;;;;5098693;28;20525;-80
2020/12/01 09:45:19;;;;;;;45.47;24.70;;;7.20;99.90;;;;;;5080731;28;20450;-80
2020/12/01 09:47:54;;;;;;;52.87;25.83;;;7.30;99.90;;;;;;5084875;28;20443;-80
2020/12/01 09:50:24;;;;;;;47.63;27.10;;;7.30;99.90;;;;;;5085906;28;20893;-80
2020/12/01 09:53:03;;;;;;;45.73;26.33;;;7.30;99.90;;;;;;5077729;28;20538;-80
2020/12/01 09:55:54;;;;;;;52.07;27.60;;;7.30;99.90;;;;;;5082113;28;20969;-80
2020/12/01 09:58:43;;;;;;;57.27;28.00;;;7.30;99.90;;;;;;5101617;28;20514;-80
2020/12/01 10:09:45;;;;;;;53.00;28.87;;;7.40;99.90;;;;;;5027206;28;20499;-80
2020/12/01 10:12:32;;;;;;;49.00;26.63;;;7.40;99.90;;;;;;5082281;28;20545;-80
2020/12/01 10:34:56;;;;;;;37.50;19.20;;;7.50;99.90;;;;;;5086279;28;20670;-80
2020/12/01 10:37:24;;;;;;;37.50;22.20;;;7.40;99.90;;;;;;5083539;28;20423;-80
2020/12/01 10:39:51;;;;;;;38.97;20.85;;;7.40;99.90;;;;;;5077578;28;20450;-80
2020/12/01 10:42:19;;;;;;;33.53;19.40;;;7.40;99.90;;;;;;5081050;28;20305;-80
2020/12/01 10:44:46;;;;;;;36.50;23.40;;;7.40;99.90;;;;;;5082647;28;20949;-80
2020/12/01 10:47:13;;;;;;;34.37;20.40;;;7.40;99.90;;;;;;5087995;28;20553;-80
2020/12/01 10:49:40;;;;;;;41.67;20.90;;;7.30;99.90;;;;;;5100563;28;20459;-80
2020/12/01 10:52:07;;;;;;;34.13;21.23;;;7.30;99.90;;;;;;5099262;28;20457;-80
2020/12/01 10:54:34;;;;;;;31.03;17.97;;;7.30;99.90;;;;;;5091164;28;20480;-80
2020/12/01 10:57:03;;;;;;;35.57;19.10;;;7.30;99.90;;;;;;5080525;28;20527;-80
2020/12/01 10:59:30;;;;;;;38.23;19.30;;;7.30;99.90;;;;;;5091758;28;20513;-80
2020/12/01 11:01:57;;;;;;;37.60;20.90;;;7.30;99.90;;;;;;5099471;28;20548;-80
2020/12/01 11:04:24;;;;;;;43.53;21.80;;;7.30;99.90;;;;;;5098208;28;20443;-80
2020/12/01 11:06:51;;;;;;;36.23;22.13;;;7.30;99.90;;;;;;5081839;28;20461;-80
2020/12/01 11:09:18;;;;;;;42.10;23.90;;;7.30;99.90;;;;;;5079610;28;20447;-80
2020/12/01 11:11:46;;;;;;;44.37;25.67;;;7.30;99.90;;;;;;5077826;28;20443;-80
2020/12/01 11:14:14;;;;;;;36.67;21.43;;;7.40;99.90;;;;;;5087544;28;20463;-80
2020/12/01 11:16:41;;;;;;;32.73;21.60;;;7.30;99.90;;;;;;5083356;28;20460;-80
2020/12/01 11:19:08;;;;;;;32.17;18.67;;;7.40;99.90;;;;;;5077785;28;20444;-80
2020/12/01 11:21:36;;;;;;;30.73;18.17;;;7.40;99.90;;;;;;5097688;28;20501;-80
2020/12/01 11:24:03;;;;;;;25.47;17.37;;;7.40;99.90;;;;;;5099146;28;21013;-80
2020/12/01 11:26:31;;;;;;;28.50;17.20;;;7.40;99.90;;;;;;5089641;28;20447;-80
2020/12/01 11:28:58;;;;;;;22.83;16.03;;;7.40;99.90;;;;;;5092545;28;20435;-80
2020/12/01 11:31:27;;;;;;;21.90;14.90;;;7.40;99.90;;;;;;5096452;28;20476;-80
2020/12/01 11:34:03;;;;;;;20.20;15.20;;;7.40;99.90;;;;;;5099735;28;20780;-80
2020/12/01 11:36:31;;;;;;;24.97;14.00;;;7.40;99.90;;;;;;5099102;28;20458;-80
2020/12/01 11:38:59;;;;;;;19.33;14.60;;;7.40;99.90;;;;;;5078946;28;20451;-80
2020/12/01 11:41:26;;;;;;;41.23;15.57;;;7.40;99.90;;;;;;5080920;28;20915;-80
2020/12/01 11:43:53;;;;;;;22.13;14.20;;;7.30;99.90;;;;;;5078514;28;20946;-80
2020/12/01 11:46:21;;;;;;;19.13;12.87;;;7.30;99.90;;;;;;5078415;28;20460;-80
2020/12/01 11:48:48;;;;;;;21.37;14.00;;;7.30;99.90;;;;;;5079505;28;20781;-80
2020/12/01 11:51:16;;;;;;;15.03;11.83;;;7.30;99.90;;;;;;5080940;28;20490;-80
2020/12/01 11:53:44;;;;;;;16.70;11.03;;;7.30;99.90;;;;;;5078438;28;20473;-80
2020/12/01 11:56:13;;;;;;;12.97;10.53;;;7.30;99.90;;;;;;5078751;28;20462;-80
2020/12/01 11:58:40;;;;;;;11.30;9.03;;;7.30;99.90;;;;;;5078873;28;20500;-80
2020/12/01 12:01:07;;;;;;;13.63;10.20;;;7.30;99.90;;;;;;5079648;28;20474;-80
2020/12/01 12:03:34;;;;;;;12.97;10.33;;;7.30;99.90;;;;;;5091546;28;20552;-80
2020/12/01 12:06:02;;;;;;;14.83;11.97;;;7.30;99.90;;;;;;5098748;28;20444;-80
2020/12/01 12:08:29;;;;;;;13.50;11.20;;;7.30;99.90;;;;;;5100922;28;20516;-80
2020/12/01 12:10:56;;;;;;;13.50;11.27;;;7.30;99.90;;;;;;5090751;28;20519;-80
2020/12/01 12:13:24;;;;;;;14.10;11.20;;;7.30;99.90;;;;;;5079788;28;20512;-80
2020/12/01 12:15:51;;;;;;;12.83;11.07;;;7.30;99.90;;;;;;5080841;28;21015;-80
2020/12/01 12:18:18;;;;;;;12.83;11.27;;;7.30;99.90;;;;;;5079896;28;20837;-80
2020/12/01 12:20:45;;;;;;;12.07;10.13;;;7.30;99.90;;;;;;5084337;28;20467;-80
2020/12/01 12:23:13;;;;;;;12.30;10.30;;;7.30;99.90;;;;;;5086989;28;20535;-80
2020/12/01 12:25:40;;;;;;;12.73;9.93;;;7.20;99.90;;;;;;5079227;28;20445;-80
2020/12/01 12:28:07;;;;;;;11.87;10.17;;;7.30;99.90;;;;;;5078231;28;21019;-80
2020/12/01 12:30:34;;;;;;;11.73;10.43;;;7.20;99.90;;;;;;5083794;28;20455;-80
2020/12/01 12:33:02;;;;;;;13.50;10.93;;;7.20;99.90;;;;;;5092606;28;20816;-80
2020/12/01 12:35:29;;;;;;;13.50;10.27;;;7.30;99.90;;;;;;5088117;28;20826;-80
2020/12/01 12:37:56;;;;;;;12.10;9.80;;;7.30;99.90;;;;;;5096939;28;20526;-80
2020/12/01 12:40:24;;;;;;;9.30;8.20;;;7.40;99.90;;;;;;5096507;28;20248;-80
2020/12/01 12:42:51;;;;;;;12.23;9.87;;;7.30;99.90;;;;;;5085023;28;20546;-80
2020/12/01 12:45:19;;;;;;;14.10;10.97;;;7.30;99.90;;;;;;5077331;28;20491;-80
2020/12/01 12:47:46;;;;;;;15.53;12.50;;;7.30;99.90;;;;;;5078855;28;20463;-80
2020/12/01 12:50:13;;;;;;;15.70;12.03;;;7.30;99.90;;;;;;5078358;28;20462;-80
2020/12/01 12:52:43;;;;;;;17.77;12.83;;;7.30;99.90;;;;;;5078261;28;20811;-80
2020/12/01 12:55:11;;;;;;;14.57;11.97;;;7.20;99.90;;;;;;5078691;28;20502;-80
2020/12/01 12:57:39;;;;;;;15.43;11.50;;;7.20;99.90;;;;;;5098335;28;20876;-80
2020/12/01 13:00:07;;;;;;;15.03;11.90;;;7.20;99.90;;;;;;5079864;28;20533;-80
2020/12/01 13:02:34;;;;;;;16.87;14.00;;;7.20;99.90;;;;;;5083577;28;20824;-80
2020/12/01 13:05:01;;;;;;;15.70;12.40;;;7.10;99.90;;;;;;5076157;28;20457;-80
2020/12/01 13:07:35;;;;;;;16.00;11.80;;;7.10;99.90;;;;;;5076272;28;20520;-80
2020/12/01 13:10:02;;;;;;;16.93;13.00;;;7.10;99.90;;;;;;5077808;28;20469;-80
2020/12/01 13:12:29;;;;;;;17.40;13.00;;;7.10;99.90;;;;;;5096214;28;21027;-80
2020/12/01 13:14:57;;;;;;;15.10;12.43;;;7.00;99.90;;;;;;5097898;28;20473;-80
2020/12/01 13:17:24;;;;;;;17.30;13.93;;;7.00;99.90;;;;;;5097204;28;20446;-80
2020/12/01 13:19:51;;;;;;;19.40;14.83;;;7.00;99.90;;;;;;5096576;28;20472;-80
2020/12/01 13:22:18;;;;;;;17.90;14.40;;;7.00;99.90;;;;;;5094055;28;20501;-80
2020/12/01 13:24:45;;;;;;;19.97;14.73;;;7.00;99.90;;;;;;5082538;28;20456;-80
2020/12/01 13:27:12;;;;;;;19.40;15.17;;;7.00;99.90;;;;;;5093250;28;20954;-80